sensor_id;sensor_type;location;lat;lon;timestamp;P1;durP1;ratioP1;P2;durP2;ratioP2
68923;SDS011;55961;52.156;20.942;2023-04-24T00:00:38;12.60;;;7.30;;
68923;SDS011;55961;52.156;20.942;2023-04-24T00:03:23;15.95;;;7.53;;
68923;SDS011;55961;52.156;20.942;2023-04-24T00:05:50;12.90;;;7.80;;
68923;SDS011;55961;52.156;20.942;2023-04-24T00:08:16;14.00;;;8.10;;
68923;SDS011;55961;52.156;20.942;2023-04-24T00:10:42;16.38;;;8.27;;
68923;SDS011;55961;52.156;20.942;2023-04-24T00:13:08;14.75;;;8.95;;
68923;SDS011;55961;52.156;20.942;2023-04-24T00:15:35;14.07;;;8.50;;
68923;SDS011;55961;52.156;20.942;2023-04-24T00:18:00;18.07;;;8.50;;
68923;SDS011;55961;52.156;20.942;2023-04-24T00:20:27;16.77;;;8.55;;
68923;SDS011;55961;52.156;20.942;2023-04-24T00:22:57;13.70;;;8.68;;
68923;SDS011;55961;52.156;20.942;2023-04-24T00:25:23;15.35;;;7.78;;
68923;SDS011;55961;52.156;20.942;2023-04-24T00:27:49;14.20;;;8.27;;
68923;SDS011;55961;52.156;20.942;2023-04-24T00:30:15;13.93;;;7.85;;
68923;SDS011;55961;52.156;20.942;2023-04-24T00:32:41;16.08;;;8.00;;
68923;SDS011;55961;52.156;20.942;2023-04-24T00:35:08;14.43;;;8.02;;
68923;SDS011;55961;52.156;20.942;2023-04-24T00:37:33;12.90;;;7.80;;
68923;SDS011;55961;52.156;20.942;2023-04-24T00:40:00;14.77;;;8.35;;
68923;SDS011;55961;52.156;20.942;2023-04-24T00:42:26;13.70;;;8.85;;
68923;SDS011;55961;52.156;20.942;2023-04-24T00:44:52;13.13;;;8.47;;
68923;SDS011;55961;52.156;20.942;2023-04-24T00:47:18;20.48;;;8.70;;
68923;SDS011;55961;52.156;20.942;2023-04-24T00:49:45;12.65;;;8.77;;
68923;SDS011;55961;52.156;20.942;2023-04-24T00:52:10;13.48;;;8.43;;
68923;SDS011;55961;52.156;20.942;2023-04-24T00:54:37;13.97;;;8.73;;
68923;SDS011;55961;52.156;20.942;2023-04-24T00:57:03;13.48;;;8.10;;
68923;SDS011;55961;52.156;20.942;2023-04-24T00:59:30;15.10;;;8.65;;
68923;SDS011;55961;52.156;20.942;2023-04-24T01:01:57;15.00;;;8.45;;
68923;SDS011;55961;52.156;20.942;2023-04-24T01:04:23;14.20;;;8.37;;
68923;SDS011;55961;52.156;20.942;2023-04-24T01:06:50;16.83;;;9.48;;
68923;SDS011;55961;52.156;20.942;2023-04-24T01:09:16;16.17;;;9.70;;
68923;SDS011;55961;52.156;20.942;2023-04-24T01:11:43;14.75;;;8.40;;
68923;SDS011;55961;52.156;20.942;2023-04-24T01:14:09;14.93;;;8.32;;
68923;SDS011;55961;52.156;20.942;2023-04-24T01:16:35;12.40;;;8.10;;
68923;SDS011;55961;52.156;20.942;2023-04-24T01:19:04;15.02;;;9.18;;
68923;SDS011;55961;52.156;20.942;2023-04-24T01:21:31;14.90;;;8.32;;
68923;SDS011;55961;52.156;20.942;2023-04-24T01:24:02;16.05;;;8.45;;
68923;SDS011;55961;52.156;20.942;2023-04-24T01:26:28;17.38;;;9.15;;
68923;SDS011;55961;52.156;20.942;2023-04-24T01:28:55;17.23;;;8.87;;
68923;SDS011;55961;52.156;20.942;2023-04-24T01:31:21;13.20;;;8.77;;
68923;SDS011;55961;52.156;20.942;2023-04-24T01:33:47;16.33;;;9.05;;
68923;SDS011;55961;52.156;20.942;2023-04-24T01:36:14;14.30;;;8.63;;
68923;SDS011;55961;52.156;20.942;2023-04-24T01:38:42;14.95;;;8.85;;
68923;SDS011;55961;52.156;20.942;2023-04-24T01:41:08;14.40;;;9.87;;
68923;SDS011;55961;52.156;20.942;2023-04-24T01:43:35;14.50;;;8.63;;
68923;SDS011;55961;52.156;20.942;2023-04-24T01:46:01;13.57;;;9.02;;
68923;SDS011;55961;52.156;20.942;2023-04-24T01:48:28;13.80;;;8.13;;
68923;SDS011;55961;52.156;20.942;2023-04-24T01:50:54;15.47;;;8.93;;
68923;SDS011;55961;52.156;20.942;2023-04-24T01:53:22;13.85;;;8.55;;
68923;SDS011;55961;52.156;20.942;2023-04-24T01:55:48;14.05;;;8.93;;
68923;SDS011;55961;52.156;20.942;2023-04-24T01:58:14;14.70;;;8.88;;
68923;SDS011;55961;52.156;20.942;2023-04-24T02:00:40;15.27;;;8.70;;
68923;SDS011;55961;52.156;20.942;2023-04-24T02:03:06;14.95;;;9.05;;
68923;SDS011;55961;52.156;20.942;2023-04-24T02:05:32;17.25;;;9.63;;
68923;SDS011;55961;52.156;20.942;2023-04-24T02:07:58;14.38;;;9.27;;
68923;SDS011;55961;52.156;20.942;2023-04-24T02:10:25;15.45;;;8.93;;
68923;SDS011;55961;52.156;20.942;2023-04-24T02:12:51;14.77;;;9.23;;
68923;SDS011;55961;52.156;20.942;2023-04-24T02:15:17;14.48;;;8.95;;
68923;SDS011;55961;52.156;20.942;2023-04-24T02:17:43;16.27;;;9.23;;
68923;SDS011;55961;52.156;20.942;2023-04-24T02:20:09;15.07;;;9.03;;
68923;SDS011;55961;52.156;20.942;2023-04-24T02:22:35;16.45;;;9.65;;
68923;SDS011;55961;52.156;20.942;2023-04-24T02:25:01;14.77;;;9.85;;
68923;SDS011;55961;52.156;20.942;2023-04-24T02:27:27;16.13;;;9.63;;
68923;SDS011;55961;52.156;20.942;2023-04-24T02:29:54;14.70;;;9.13;;
68923;SDS011;55961;52.156;20.942;2023-04-24T02:32:20;15.77;;;9.25;;
68923;SDS011;55961;52.156;20.942;2023-04-24T02:34:46;18.53;;;9.97;;
68923;SDS011;55961;52.156;20.942;2023-04-24T02:37:12;15.63;;;9.63;;
68923;SDS011;55961;52.156;20.942;2023-04-24T02:39:38;15.70;;;9.57;;
68923;SDS011;55961;52.156;20.942;2023-04-24T02:42:04;16.63;;;9.35;;
68923;SDS011;55961;52.156;20.942;2023-04-24T02:44:30;16.33;;;9.47;;
68923;SDS011;55961;52.156;20.942;2023-04-24T02:46:56;15.30;;;9.02;;
68923;SDS011;55961;52.156;20.942;2023-04-24T02:49:22;15.75;;;9.77;;
68923;SDS011;55961;52.156;20.942;2023-04-24T02:51:48;15.45;;;9.20;;
68923;SDS011;55961;52.156;20.942;2023-04-24T02:54:14;15.97;;;9.70;;
68923;SDS011;55961;52.156;20.942;2023-04-24T02:56:40;17.08;;;10.00;;
68923;SDS011;55961;52.156;20.942;2023-04-24T02:59:06;14.95;;;9.15;;
68923;SDS011;55961;52.156;20.942;2023-04-24T03:01:32;17.37;;;9.53;;
68923;SDS011;55961;52.156;20.942;2023-04-24T03:03:57;14.07;;;8.77;;
68923;SDS011;55961;52.156;20.942;2023-04-24T03:06:23;16.98;;;10.30;;
68923;SDS011;55961;52.156;20.942;2023-04-24T03:08:49;15.83;;;9.73;;
68923;SDS011;55961;52.156;20.942;2023-04-24T03:11:15;15.38;;;10.10;;
68923;SDS011;55961;52.156;20.942;2023-04-24T03:13:41;17.02;;;9.73;;
68923;SDS011;55961;52.156;20.942;2023-04-24T03:16:07;15.10;;;9.35;;
68923;SDS011;55961;52.156;20.942;2023-04-24T03:18:33;16.30;;;10.30;;
68923;SDS011;55961;52.156;20.942;2023-04-24T03:20:59;17.00;;;10.07;;
68923;SDS011;55961;52.156;20.942;2023-04-24T03:23:25;16.08;;;9.60;;
68923;SDS011;55961;52.156;20.942;2023-04-24T03:25:51;20.60;;;10.07;;
68923;SDS011;55961;52.156;20.942;2023-04-24T03:28:17;16.30;;;9.80;;
68923;SDS011;55961;52.156;20.942;2023-04-24T03:30:45;16.55;;;9.68;;
68923;SDS011;55961;52.156;20.942;2023-04-24T03:33:10;16.17;;;9.60;;
68923;SDS011;55961;52.156;20.942;2023-04-24T03:35:36;14.30;;;9.83;;
68923;SDS011;55961;52.156;20.942;2023-04-24T03:38:02;18.90;;;9.95;;
68923;SDS011;55961;52.156;20.942;2023-04-24T03:40:30;13.40;;;8.90;;
68923;SDS011;55961;52.156;20.942;2023-04-24T03:42:55;16.10;;;10.03;;
68923;SDS011;55961;52.156;20.942;2023-04-24T03:45:22;19.85;;;9.73;;
68923;SDS011;55961;52.156;20.942;2023-04-24T03:47:47;13.80;;;9.18;;
68923;SDS011;55961;52.156;20.942;2023-04-24T03:50:13;15.00;;;9.50;;
68923;SDS011;55961;52.156;20.942;2023-04-24T03:52:39;16.13;;;9.50;;
68923;SDS011;55961;52.156;20.942;2023-04-24T03:55:06;15.05;;;8.75;;
68923;SDS011;55961;52.156;20.942;2023-04-24T03:57:32;13.85;;;8.90;;
68923;SDS011;55961;52.156;20.942;2023-04-24T03:59:58;16.20;;;8.80;;
68923;SDS011;55961;52.156;20.942;2023-04-24T04:02:24;14.87;;;8.67;;
68923;SDS011;55961;52.156;20.942;2023-04-24T04:04:50;15.82;;;8.68;;
68923;SDS011;55961;52.156;20.942;2023-04-24T04:07:16;15.25;;;9.45;;
68923;SDS011;55961;52.156;20.942;2023-04-24T04:09:42;14.57;;;9.35;;
68923;SDS011;55961;52.156;20.942;2023-04-24T04:12:08;15.07;;;8.63;;
68923;SDS011;55961;52.156;20.942;2023-04-24T04:14:34;15.43;;;9.15;;
68923;SDS011;55961;52.156;20.942;2023-04-24T04:17:00;16.83;;;9.97;;
68923;SDS011;55961;52.156;20.942;2023-04-24T04:19:26;16.52;;;9.82;;
68923;SDS011;55961;52.156;20.942;2023-04-24T04:21:52;18.50;;;10.10;;
68923;SDS011;55961;52.156;20.942;2023-04-24T04:24:19;15.20;;;9.25;;
68923;SDS011;55961;52.156;20.942;2023-04-24T04:26:49;20.23;;;15.17;;
68923;SDS011;55961;52.156;20.942;2023-04-24T04:29:17;18.60;;;9.75;;
68923;SDS011;55961;52.156;20.942;2023-04-24T04:31:47;14.40;;;8.95;;
68923;SDS011;55961;52.156;20.942;2023-04-24T04:34:13;16.13;;;9.68;;
68923;SDS011;55961;52.156;20.942;2023-04-24T04:36:40;16.70;;;9.87;;
68923;SDS011;55961;52.156;20.942;2023-04-24T04:39:07;15.82;;;8.55;;
68923;SDS011;55961;52.156;20.942;2023-04-24T04:41:32;15.68;;;9.10;;
68923;SDS011;55961;52.156;20.942;2023-04-24T04:44:00;16.58;;;8.45;;
68923;SDS011;55961;52.156;20.942;2023-04-24T04:46:29;14.77;;;8.43;;
68923;SDS011;55961;52.156;20.942;2023-04-24T04:48:58;17.10;;;9.00;;
68923;SDS011;55961;52.156;20.942;2023-04-24T04:51:25;13.20;;;7.85;;
68923;SDS011;55961;52.156;20.942;2023-04-24T04:53:51;14.82;;;8.25;;
68923;SDS011;55961;52.156;20.942;2023-04-24T04:56:16;14.97;;;8.43;;
68923;SDS011;55961;52.156;20.942;2023-04-24T04:58:42;16.00;;;9.52;;
68923;SDS011;55961;52.156;20.942;2023-04-24T05:01:08;16.23;;;9.50;;
68923;SDS011;55961;52.156;20.942;2023-04-24T05:03:34;18.48;;;9.82;;
68923;SDS011;55961;52.156;20.942;2023-04-24T05:06:01;16.77;;;9.30;;
68923;SDS011;55961;52.156;20.942;2023-04-24T05:08:27;15.77;;;8.93;;
68923;SDS011;55961;52.156;20.942;2023-04-24T05:10:53;15.90;;;8.77;;
68923;SDS011;55961;52.156;20.942;2023-04-24T05:13:20;16.75;;;9.75;;
68923;SDS011;55961;52.156;20.942;2023-04-24T05:15:46;16.93;;;9.10;;
68923;SDS011;55961;52.156;20.942;2023-04-24T05:18:12;15.70;;;9.00;;
68923;SDS011;55961;52.156;20.942;2023-04-24T05:20:38;17.50;;;9.37;;
68923;SDS011;55961;52.156;20.942;2023-04-24T05:23:04;14.57;;;7.93;;
68923;SDS011;55961;52.156;20.942;2023-04-24T05:25:30;14.05;;;8.55;;
68923;SDS011;55961;52.156;20.942;2023-04-24T05:28:00;14.05;;;8.00;;
68923;SDS011;55961;52.156;20.942;2023-04-24T05:30:27;14.88;;;8.43;;
68923;SDS011;55961;52.156;20.942;2023-04-24T05:32:53;14.33;;;8.63;;
68923;SDS011;55961;52.156;20.942;2023-04-24T05:35:19;17.90;;;8.63;;
68923;SDS011;55961;52.156;20.942;2023-04-24T05:37:45;16.83;;;9.05;;
68923;SDS011;55961;52.156;20.942;2023-04-24T05:40:11;17.60;;;9.13;;
68923;SDS011;55961;52.156;20.942;2023-04-24T05:42:37;20.50;;;9.30;;
68923;SDS011;55961;52.156;20.942;2023-04-24T05:45:03;15.00;;;9.43;;
68923;SDS011;55961;52.156;20.942;2023-04-24T05:47:30;12.85;;;8.45;;
68923;SDS011;55961;52.156;20.942;2023-04-24T05:49:55;16.13;;;8.70;;
68923;SDS011;55961;52.156;20.942;2023-04-24T05:52:21;16.42;;;8.70;;
68923;SDS011;55961;52.156;20.942;2023-04-24T05:54:47;16.47;;;9.00;;
68923;SDS011;55961;52.156;20.942;2023-04-24T05:57:13;15.48;;;9.60;;
68923;SDS011;55961;52.156;20.942;2023-04-24T05:59:40;14.90;;;8.95;;
68923;SDS011;55961;52.156;20.942;2023-04-24T06:02:06;18.65;;;8.73;;
68923;SDS011;55961;52.156;20.942;2023-04-24T06:04:32;16.13;;;9.07;;
68923;SDS011;55961;52.156;20.942;2023-04-24T06:06:59;17.60;;;8.87;;
68923;SDS011;55961;52.156;20.942;2023-04-24T06:09:25;16.77;;;8.98;;
68923;SDS011;55961;52.156;20.942;2023-04-24T06:11:51;14.65;;;9.00;;
68923;SDS011;55961;52.156;20.942;2023-04-24T06:14:21;16.77;;;9.13;;
68923;SDS011;55961;52.156;20.942;2023-04-24T06:16:47;21.50;;;9.50;;
68923;SDS011;55961;52.156;20.942;2023-04-24T06:19:13;17.53;;;9.80;;
68923;SDS011;55961;52.156;20.942;2023-04-24T06:21:39;19.05;;;8.80;;
68923;SDS011;55961;52.156;20.942;2023-04-24T06:24:05;16.20;;;8.70;;
68923;SDS011;55961;52.156;20.942;2023-04-24T06:26:31;15.18;;;9.07;;
68923;SDS011;55961;52.156;20.942;2023-04-24T06:28:57;15.05;;;9.52;;
68923;SDS011;55961;52.156;20.942;2023-04-24T06:31:24;15.68;;;8.82;;
68923;SDS011;55961;52.156;20.942;2023-04-24T06:33:50;17.23;;;9.70;;
68923;SDS011;55961;52.156;20.942;2023-04-24T06:36:16;14.77;;;8.90;;
68923;SDS011;55961;52.156;20.942;2023-04-24T06:38:42;13.95;;;7.53;;
68923;SDS011;55961;52.156;20.942;2023-04-24T06:41:09;14.23;;;8.05;;
68923;SDS011;55961;52.156;20.942;2023-04-24T06:43:35;18.17;;;8.27;;
68923;SDS011;55961;52.156;20.942;2023-04-24T06:46:01;15.82;;;8.57;;
68923;SDS011;55961;52.156;20.942;2023-04-24T06:48:28;12.45;;;8.10;;
68923;SDS011;55961;52.156;20.942;2023-04-24T06:50:55;14.48;;;8.15;;
68923;SDS011;55961;52.156;20.942;2023-04-24T06:53:20;14.47;;;8.23;;
68923;SDS011;55961;52.156;20.942;2023-04-24T06:55:46;16.33;;;8.40;;
68923;SDS011;55961;52.156;20.942;2023-04-24T06:58:12;17.25;;;8.68;;
68923;SDS011;55961;52.156;20.942;2023-04-24T07:00:39;14.13;;;8.20;;
68923;SDS011;55961;52.156;20.942;2023-04-24T07:03:05;13.00;;;8.27;;
68923;SDS011;55961;52.156;20.942;2023-04-24T07:05:31;16.08;;;8.77;;
68923;SDS011;55961;52.156;20.942;2023-04-24T07:07:59;16.17;;;9.00;;
68923;SDS011;55961;52.156;20.942;2023-04-24T07:10:25;14.52;;;8.23;;
68923;SDS011;55961;52.156;20.942;2023-04-24T07:12:53;14.47;;;8.73;;
68923;SDS011;55961;52.156;20.942;2023-04-24T07:15:21;12.13;;;8.52;;
68923;SDS011;55961;52.156;20.942;2023-04-24T07:17:47;13.65;;;8.57;;
68923;SDS011;55961;52.156;20.942;2023-04-24T07:20:13;15.52;;;8.82;;
68923;SDS011;55961;52.156;20.942;2023-04-24T07:22:40;16.17;;;9.10;;
68923;SDS011;55961;52.156;20.942;2023-04-24T07:25:06;15.83;;;8.73;;
68923;SDS011;55961;52.156;20.942;2023-04-24T07:27:33;16.08;;;8.60;;
68923;SDS011;55961;52.156;20.942;2023-04-24T07:30:00;16.92;;;8.50;;
68923;SDS011;55961;52.156;20.942;2023-04-24T07:32:26;15.88;;;8.50;;
68923;SDS011;55961;52.156;20.942;2023-04-24T07:34:52;17.17;;;8.43;;
68923;SDS011;55961;52.156;20.942;2023-04-24T07:37:18;17.60;;;8.23;;
68923;SDS011;55961;52.156;20.942;2023-04-24T07:39:44;18.00;;;8.15;;
68923;SDS011;55961;52.156;20.942;2023-04-24T07:42:10;17.47;;;8.43;;
68923;SDS011;55961;52.156;20.942;2023-04-24T07:44:36;17.80;;;8.55;;
68923;SDS011;55961;52.156;20.942;2023-04-24T07:47:02;17.05;;;9.05;;
68923;SDS011;55961;52.156;20.942;2023-04-24T07:49:28;20.13;;;7.90;;
68923;SDS011;55961;52.156;20.942;2023-04-24T07:51:54;15.85;;;7.45;;
68923;SDS011;55961;52.156;20.942;2023-04-24T07:54:20;12.32;;;8.13;;
68923;SDS011;55961;52.156;20.942;2023-04-24T07:56:46;17.57;;;8.60;;
68923;SDS011;55961;52.156;20.942;2023-04-24T07:59:12;13.93;;;8.03;;
68923;SDS011;55961;52.156;20.942;2023-04-24T08:01:37;16.10;;;9.13;;
68923;SDS011;55961;52.156;20.942;2023-04-24T08:04:04;15.18;;;9.95;;
68923;SDS011;55961;52.156;20.942;2023-04-24T08:06:29;14.00;;;8.30;;
68923;SDS011;55961;52.156;20.942;2023-04-24T08:08:57;15.60;;;8.88;;
68923;SDS011;55961;52.156;20.942;2023-04-24T08:11:24;14.88;;;8.73;;
68923;SDS011;55961;52.156;20.942;2023-04-24T08:13:50;14.77;;;8.52;;
68923;SDS011;55961;52.156;20.942;2023-04-24T08:16:16;14.27;;;9.27;;
68923;SDS011;55961;52.156;20.942;2023-04-24T08:18:42;14.50;;;8.70;;
68923;SDS011;55961;52.156;20.942;2023-04-24T08:21:08;13.52;;;8.70;;
68923;SDS011;55961;52.156;20.942;2023-04-24T08:23:34;18.77;;;9.27;;
68923;SDS011;55961;52.156;20.942;2023-04-24T08:26:00;18.90;;;8.95;;
68923;SDS011;55961;52.156;20.942;2023-04-24T08:28:26;14.75;;;9.43;;
68923;SDS011;55961;52.156;20.942;2023-04-24T08:30:52;16.40;;;8.90;;
68923;SDS011;55961;52.156;20.942;2023-04-24T08:33:23;14.88;;;8.93;;
68923;SDS011;55961;52.156;20.942;2023-04-24T08:35:49;14.48;;;9.13;;
68923;SDS011;55961;52.156;20.942;2023-04-24T08:38:16;13.88;;;9.00;;
68923;SDS011;55961;52.156;20.942;2023-04-24T08:40:42;17.50;;;9.75;;
68923;SDS011;55961;52.156;20.942;2023-04-24T08:43:08;19.80;;;9.13;;
68923;SDS011;55961;52.156;20.942;2023-04-24T08:45:35;14.57;;;8.57;;
68923;SDS011;55961;52.156;20.942;2023-04-24T08:48:02;19.05;;;10.35;;
68923;SDS011;55961;52.156;20.942;2023-04-24T08:50:29;17.40;;;9.20;;
68923;SDS011;55961;52.156;20.942;2023-04-24T08:52:57;17.08;;;9.48;;
68923;SDS011;55961;52.156;20.942;2023-04-24T08:55:23;15.20;;;9.50;;
68923;SDS011;55961;52.156;20.942;2023-04-24T08:57:50;21.33;;;9.85;;
68923;SDS011;55961;52.156;20.942;2023-04-24T09:00:18;17.27;;;9.57;;
68923;SDS011;55961;52.156;20.942;2023-04-24T09:02:46;15.57;;;9.60;;
68923;SDS011;55961;52.156;20.942;2023-04-24T09:05:14;16.10;;;9.70;;
68923;SDS011;55961;52.156;20.942;2023-04-24T09:07:44;13.43;;;8.47;;
68923;SDS011;55961;52.156;20.942;2023-04-24T09:10:12;14.07;;;8.68;;
68923;SDS011;55961;52.156;20.942;2023-04-24T09:12:39;16.83;;;9.02;;
68923;SDS011;55961;52.156;20.942;2023-04-24T09:15:05;13.85;;;8.80;;
68923;SDS011;55961;52.156;20.942;2023-04-24T09:17:33;16.17;;;7.38;;
68923;SDS011;55961;52.156;20.942;2023-04-24T09:19:59;11.40;;;7.80;;
68923;SDS011;55961;52.156;20.942;2023-04-24T09:22:25;10.05;;;7.00;;
68923;SDS011;55961;52.156;20.942;2023-04-24T09:25:02;11.13;;;6.82;;
68923;SDS011;55961;52.156;20.942;2023-04-24T09:27:32;10.50;;;6.97;;
68923;SDS011;55961;52.156;20.942;2023-04-24T09:29:59;11.17;;;6.13;;
68923;SDS011;55961;52.156;20.942;2023-04-24T09:32:26;11.15;;;7.20;;
68923;SDS011;55961;52.156;20.942;2023-04-24T09:35:07;11.15;;;6.63;;
68923;SDS011;55961;52.156;20.942;2023-04-24T09:37:46;11.43;;;7.20;;
68923;SDS011;55961;52.156;20.942;2023-04-24T09:40:17;10.43;;;6.57;;
68923;SDS011;55961;52.156;20.942;2023-04-24T09:42:55;11.77;;;6.60;;
68923;SDS011;55961;52.156;20.942;2023-04-24T09:45:22;10.15;;;6.75;;
68923;SDS011;55961;52.156;20.942;2023-04-24T09:47:52;11.20;;;6.60;;
68923;SDS011;55961;52.156;20.942;2023-04-24T09:50:21;8.07;;;5.90;;
68923;SDS011;55961;52.156;20.942;2023-04-24T09:52:58;8.98;;;5.90;;
68923;SDS011;55961;52.156;20.942;2023-04-24T09:55:27;12.00;;;6.80;;
68923;SDS011;55961;52.156;20.942;2023-04-24T10:00:24;9.85;;;6.22;;
68923;SDS011;55961;52.156;20.942;2023-04-24T10:02:58;13.48;;;7.32;;
68923;SDS011;55961;52.156;20.942;2023-04-24T10:05:27;9.95;;;5.85;;
68923;SDS011;55961;52.156;20.942;2023-04-24T10:07:57;10.90;;;6.87;;
68923;SDS011;55961;52.156;20.942;2023-04-24T10:10:27;9.60;;;7.07;;
68923;SDS011;55961;52.156;20.942;2023-04-24T10:12:53;9.07;;;6.38;;
68923;SDS011;55961;52.156;20.942;2023-04-24T10:15:20;13.52;;;7.43;;
68923;SDS011;55961;52.156;20.942;2023-04-24T10:17:50;10.93;;;7.57;;
68923;SDS011;55961;52.156;20.942;2023-04-24T10:20:20;12.97;;;7.90;;
68923;SDS011;55961;52.156;20.942;2023-04-24T10:22:49;13.88;;;7.85;;
68923;SDS011;55961;52.156;20.942;2023-04-24T10:25:16;11.38;;;7.53;;
68923;SDS011;55961;52.156;20.942;2023-04-24T10:27:46;13.50;;;8.13;;
68923;SDS011;55961;52.156;20.942;2023-04-24T10:30:13;11.35;;;7.53;;
68923;SDS011;55961;52.156;20.942;2023-04-24T10:32:40;12.40;;;7.27;;
68923;SDS011;55961;52.156;20.942;2023-04-24T10:35:06;11.60;;;6.78;;
68923;SDS011;55961;52.156;20.942;2023-04-24T10:38:16;12.38;;;7.15;;
68923;SDS011;55961;52.156;20.942;2023-04-24T10:40:57;11.68;;;7.40;;
68923;SDS011;55961;52.156;20.942;2023-04-24T10:43:32;10.52;;;7.40;;
68923;SDS011;55961;52.156;20.942;2023-04-24T10:46:02;12.97;;;7.53;;
68923;SDS011;55961;52.156;20.942;2023-04-24T10:48:30;13.88;;;7.20;;
68923;SDS011;55961;52.156;20.942;2023-04-24T10:50:57;11.98;;;7.05;;
68923;SDS011;55961;52.156;20.942;2023-04-24T10:53:24;11.93;;;6.63;;
68923;SDS011;55961;52.156;20.942;2023-04-24T10:55:57;9.15;;;5.97;;
68923;SDS011;55961;52.156;20.942;2023-04-24T10:58:23;10.23;;;6.50;;
68923;SDS011;55961;52.156;20.942;2023-04-24T11:01:00;8.98;;;5.63;;
68923;SDS011;55961;52.156;20.942;2023-04-24T11:03:27;10.80;;;6.85;;
68923;SDS011;55961;52.156;20.942;2023-04-24T11:05:59;10.20;;;5.90;;
68923;SDS011;55961;52.156;20.942;2023-04-24T11:19:07;11.93;;;6.60;;
68923;SDS011;55961;52.156;20.942;2023-04-24T11:21:43;8.87;;;6.07;;
68923;SDS011;55961;52.156;20.942;2023-04-24T11:24:24;10.00;;;6.38;;
68923;SDS011;55961;52.156;20.942;2023-04-24T11:37:24;10.05;;;6.57;;
68923;SDS011;55961;52.156;20.942;2023-04-24T11:39:56;10.68;;;7.18;;
68923;SDS011;55961;52.156;20.942;2023-04-24T11:42:23;10.70;;;6.40;;
68923;SDS011;55961;52.156;20.942;2023-04-24T11:44:53;10.30;;;6.40;;
68923;SDS011;55961;52.156;20.942;2023-04-24T11:47:29;9.40;;;6.40;;
68923;SDS011;55961;52.156;20.942;2023-04-24T11:49:58;9.60;;;5.95;;
68923;SDS011;55961;52.156;20.942;2023-04-24T11:52:25;12.07;;;6.40;;
68923;SDS011;55961;52.156;20.942;2023-04-24T11:54:51;7.80;;;5.80;;
68923;SDS011;55961;52.156;20.942;2023-04-24T11:57:20;9.48;;;6.78;;
68923;SDS011;55961;52.156;20.942;2023-04-24T11:59:49;8.27;;;5.90;;
68923;SDS011;55961;52.156;20.942;2023-04-24T12:02:21;14.13;;;7.20;;
68923;SDS011;55961;52.156;20.942;2023-04-24T12:04:55;13.07;;;7.93;;
68923;SDS011;55961;52.156;20.942;2023-04-24T12:07:22;10.20;;;5.85;;
68923;SDS011;55961;52.156;20.942;2023-04-24T12:09:59;9.70;;;6.20;;
68923;SDS011;55961;52.156;20.942;2023-04-24T12:12:26;9.13;;;6.70;;
68923;SDS011;55961;52.156;20.942;2023-04-24T12:14:53;8.82;;;6.25;;
68923;SDS011;55961;52.156;20.942;2023-04-24T12:17:30;8.98;;;6.45;;
68923;SDS011;55961;52.156;20.942;2023-04-24T12:20:01;10.20;;;6.45;;
68923;SDS011;55961;52.156;20.942;2023-04-24T12:22:44;11.82;;;6.20;;
68923;SDS011;55961;52.156;20.942;2023-04-24T12:25:16;8.97;;;6.10;;
68923;SDS011;55961;52.156;20.942;2023-04-24T12:27:44;11.45;;;6.18;;
68923;SDS011;55961;52.156;20.942;2023-04-24T12:30:12;10.45;;;6.55;;
68923;SDS011;55961;52.156;20.942;2023-04-24T12:32:43;9.35;;;6.43;;
68923;SDS011;55961;52.156;20.942;2023-04-24T12:35:13;14.23;;;5.55;;
68923;SDS011;55961;52.156;20.942;2023-04-24T12:37:45;30.43;;;4.47;;
68923;SDS011;55961;52.156;20.942;2023-04-24T12:40:11;34.75;;;4.95;;
68923;SDS011;55961;52.156;20.942;2023-04-24T12:42:56;27.75;;;4.45;;
68923;SDS011;55961;52.156;20.942;2023-04-24T12:45:22;13.80;;;4.47;;
68923;SDS011;55961;52.156;20.942;2023-04-24T12:47:50;6.70;;;2.92;;
68923;SDS011;55961;52.156;20.942;2023-04-24T12:50:16;11.77;;;3.73;;
68923;SDS011;55961;52.156;20.942;2023-04-24T12:52:43;10.18;;;2.97;;
68923;SDS011;55961;52.156;20.942;2023-04-24T12:55:09;6.03;;;2.90;;
68923;SDS011;55961;52.156;20.942;2023-04-24T12:57:36;12.43;;;2.90;;
68923;SDS011;55961;52.156;20.942;2023-04-24T13:00:02;9.48;;;3.38;;
68923;SDS011;55961;52.156;20.942;2023-04-24T13:02:30;8.27;;;3.67;;
68923;SDS011;55961;52.156;20.942;2023-04-24T13:04:56;9.20;;;3.10;;
68923;SDS011;55961;52.156;20.942;2023-04-24T13:07:24;6.28;;;3.42;;
68923;SDS011;55961;52.156;20.942;2023-04-24T13:09:50;9.00;;;3.87;;
68923;SDS011;55961;52.156;20.942;2023-04-24T13:12:17;6.95;;;3.08;;
68923;SDS011;55961;52.156;20.942;2023-04-24T13:14:44;5.55;;;3.08;;
68923;SDS011;55961;52.156;20.942;2023-04-24T13:17:11;9.02;;;3.35;;
68923;SDS011;55961;52.156;20.942;2023-04-24T13:19:38;8.73;;;3.25;;
68923;SDS011;55961;52.156;20.942;2023-04-24T13:22:06;8.57;;;2.97;;
68923;SDS011;55961;52.156;20.942;2023-04-24T13:24:32;6.80;;;3.47;;
68923;SDS011;55961;52.156;20.942;2023-04-24T13:26:58;5.85;;;3.10;;
68923;SDS011;55961;52.156;20.942;2023-04-24T13:29:25;7.70;;;3.42;;
68923;SDS011;55961;52.156;20.942;2023-04-24T13:31:51;7.05;;;3.53;;
68923;SDS011;55961;52.156;20.942;2023-04-24T13:34:19;7.87;;;3.93;;
68923;SDS011;55961;52.156;20.942;2023-04-24T13:36:45;6.13;;;3.60;;
68923;SDS011;55961;52.156;20.942;2023-04-24T13:39:11;7.70;;;3.63;;
68923;SDS011;55961;52.156;20.942;2023-04-24T13:41:37;10.55;;;4.45;;
68923;SDS011;55961;52.156;20.942;2023-04-24T13:44:03;6.45;;;3.47;;
68923;SDS011;55961;52.156;20.942;2023-04-24T13:46:32;7.73;;;4.10;;
68923;SDS011;55961;52.156;20.942;2023-04-24T13:48:58;7.00;;;4.07;;
68923;SDS011;55961;52.156;20.942;2023-04-24T13:51:25;6.82;;;3.65;;
68923;SDS011;55961;52.156;20.942;2023-04-24T13:53:54;5.25;;;3.80;;
68923;SDS011;55961;52.156;20.942;2023-04-24T13:56:20;6.53;;;4.67;;
68923;SDS011;55961;52.156;20.942;2023-04-24T13:58:47;7.25;;;4.10;;
68923;SDS011;55961;52.156;20.942;2023-04-24T14:01:14;8.18;;;4.45;;
68923;SDS011;55961;52.156;20.942;2023-04-24T14:03:41;6.22;;;3.92;;
68923;SDS011;55961;52.156;20.942;2023-04-24T14:06:08;6.45;;;3.70;;
68923;SDS011;55961;52.156;20.942;2023-04-24T14:08:34;7.73;;;4.10;;
68923;SDS011;55961;52.156;20.942;2023-04-24T14:11:00;6.78;;;4.45;;
68923;SDS011;55961;52.156;20.942;2023-04-24T14:13:26;8.00;;;4.20;;
68923;SDS011;55961;52.156;20.942;2023-04-24T14:15:53;7.67;;;4.47;;
68923;SDS011;55961;52.156;20.942;2023-04-24T14:18:19;6.68;;;3.88;;
68923;SDS011;55961;52.156;20.942;2023-04-24T14:20:45;7.07;;;4.05;;
68923;SDS011;55961;52.156;20.942;2023-04-24T14:23:11;7.50;;;3.80;;
68923;SDS011;55961;52.156;20.942;2023-04-24T14:25:37;7.80;;;3.83;;
68923;SDS011;55961;52.156;20.942;2023-04-24T14:28:03;8.23;;;4.03;;
68923;SDS011;55961;52.156;20.942;2023-04-24T14:30:29;7.47;;;4.30;;
68923;SDS011;55961;52.156;20.942;2023-04-24T14:32:55;7.65;;;3.50;;
68923;SDS011;55961;52.156;20.942;2023-04-24T14:35:21;8.23;;;3.53;;
68923;SDS011;55961;52.156;20.942;2023-04-24T14:37:47;5.93;;;3.67;;
68923;SDS011;55961;52.156;20.942;2023-04-24T14:40:14;5.57;;;3.65;;
68923;SDS011;55961;52.156;20.942;2023-04-24T14:42:40;7.03;;;3.50;;
68923;SDS011;55961;52.156;20.942;2023-04-24T14:45:06;6.60;;;3.60;;
68923;SDS011;55961;52.156;20.942;2023-04-24T14:47:33;6.00;;;3.45;;